createdAt,value
2019-05-02T00:02:00.716Z,15.83
2019-05-02T00:04:30.752Z,19.47
2019-05-02T00:07:14.622Z,14.50
2019-05-02T00:09:48.412Z,11.40
2019-05-02T00:12:17.393Z,14.80
2019-05-02T00:14:47.854Z,12.27
2019-05-02T00:17:20.155Z,16.33
2019-05-02T00:19:51.274Z,25.33
2019-05-02T00:22:21.505Z,21.37
2019-05-02T00:24:51.552Z,13.33
2019-05-02T00:27:22.581Z,16.53
2019-05-02T00:29:53.756Z,12.13
2019-05-02T00:32:24.463Z,12.90
2019-05-02T00:34:54.624Z,11.40
2019-05-02T00:37:26.623Z,17.17
2019-05-02T00:39:56.487Z,12.10
2019-05-02T00:42:26.553Z,17.33
2019-05-02T00:44:56.618Z,16.73
2019-05-02T00:47:36.034Z,15.50
2019-05-02T00:50:11.279Z,16.47
2019-05-02T00:52:39.746Z,15.50
2019-05-02T00:55:09.875Z,21.80
2019-05-02T00:57:40.114Z,21.90
2019-05-02T01:00:13.428Z,18.83
2019-05-02T01:03:01.936Z,11.43
2019-05-02T01:05:33.828Z,18.70
2019-05-02T01:08:03.916Z,12.70
2019-05-02T01:10:33.934Z,14.47
2019-05-02T01:13:04.003Z,17.43
2019-05-02T01:15:34.149Z,18.90
2019-05-02T01:18:06.219Z,14.73
2019-05-02T01:20:36.067Z,12.80
2019-05-02T01:23:06.107Z,33.93
2019-05-02T01:25:36.237Z,15.20
2019-05-02T01:28:17.712Z,20.33
2019-05-02T01:31:13.017Z,17.10
2019-05-02T01:33:54.061Z,12.63
2019-05-02T01:36:28.852Z,26.83
2019-05-02T01:39:02.916Z,19.43
2019-05-02T01:41:31.106Z,12.57
2019-05-02T01:44:01.669Z,21.40
2019-05-02T01:46:31.726Z,13.60
2019-05-02T01:49:01.879Z,16.47
2019-05-02T01:51:31.931Z,16.37
2019-05-02T01:54:05.070Z,13.90
2019-05-02T01:56:34.889Z,14.13
2019-05-02T01:59:05.199Z,13.57
2019-05-02T02:01:35.176Z,12.50
2019-05-02T02:04:05.387Z,29.90
2019-05-02T02:06:38.826Z,22.73
2019-05-02T02:09:09.635Z,13.63
2019-05-02T02:11:40.353Z,34.97
2019-05-02T02:14:12.774Z,20.77
2019-05-02T02:16:42.436Z,13.47
2019-05-02T02:19:21.167Z,12.73
2019-05-02T02:22:04.974Z,9.83
2019-05-02T02:24:38.865Z,16.57
2019-05-02T02:27:09.043Z,14.50
2019-05-02T02:29:43.857Z,21.43
2019-05-02T02:32:10.962Z,41.03
2019-05-02T02:34:41.023Z,19.40
2019-05-02T02:37:12.500Z,26.10
2019-05-02T02:39:48.696Z,21.70
2019-05-02T02:42:14.657Z,16.37
2019-05-02T02:45:00.530Z,29.10
2019-05-02T02:47:30.745Z,19.90
2019-05-02T02:50:02.483Z,15.73
2019-05-02T02:52:37.915Z,30.07
2019-05-02T02:55:04.891Z,18.70
2019-05-02T02:57:35.278Z,32.63
2019-05-02T03:00:08.672Z,35.20
2019-05-02T03:02:47.518Z,22.63
2019-05-02T03:05:10.217Z,21.23
2019-05-02T03:07:40.505Z,21.10
2019-05-02T03:10:10.856Z,23.70
2019-05-02T03:12:58.606Z,25.63
2019-05-02T03:15:30.700Z,37.83
2019-05-02T03:18:02.123Z,19.10
2019-05-02T03:20:39.810Z,17.63
2019-05-02T03:23:04.278Z,18.43
2019-05-02T03:25:49.830Z,35.53
2019-05-02T03:28:17.322Z,35.83
2019-05-02T03:30:38.267Z,28.53
2019-05-02T03:33:11.354Z,39.10
2019-05-02T03:35:43.974Z,49.03
2019-05-02T03:38:12.002Z,20.23
2019-05-02T03:40:42.086Z,24.27
2019-05-02T03:43:19.231Z,44.47
2019-05-02T03:45:44.849Z,27.53
2019-05-02T03:48:18.304Z,38.90
2019-05-02T03:50:46.852Z,19.07
2019-05-02T03:53:17.647Z,22.97
2019-05-02T03:55:48.875Z,25.00
2019-05-02T03:58:19.089Z,47.40
2019-05-02T04:01:00.932Z,25.23
2019-05-02T04:03:22.747Z,32.27
2019-05-02T04:05:53.114Z,32.00
2019-05-02T04:08:23.852Z,28.27
2019-05-02T04:11:25.498Z,36.57
2019-05-02T04:13:56.323Z,32.00
2019-05-02T04:16:28.692Z,21.80
2019-05-02T04:19:03.040Z,49.00
2019-05-02T04:21:34.357Z,25.70
2019-05-02T04:24:12.620Z,23.70
2019-05-02T04:26:37.171Z,20.40
2019-05-02T04:29:07.245Z,18.20
2019-05-02T04:31:37.415Z,20.03
2019-05-02T04:34:14.925Z,45.23
2019-05-02T04:36:39.249Z,20.00
2019-05-02T04:39:15.145Z,41.70
2019-05-02T04:41:42.685Z,21.10
2019-05-02T04:44:12.867Z,17.03
2019-05-02T04:46:43.032Z,15.50
2019-05-02T04:49:13.113Z,20.87
2019-05-02T04:51:50.763Z,17.30
2019-05-02T04:54:21.377Z,33.63
2019-05-02T04:56:52.317Z,19.17
2019-05-02T04:59:22.729Z,17.57
2019-05-02T05:01:56.998Z,13.33
2019-05-02T05:04:22.255Z,36.00
2019-05-02T05:06:55.797Z,19.93
2019-05-02T05:09:24.098Z,21.03
2019-05-02T05:12:00.907Z,20.27
2019-05-02T05:14:31.413Z,31.10
2019-05-02T05:16:58.098Z,40.00
2019-05-02T05:19:32.631Z,27.93
2019-05-02T05:22:04.823Z,38.73
2019-05-02T05:24:42.291Z,46.33
2019-05-02T05:27:13.259Z,44.33
2019-05-02T05:29:48.015Z,46.63
2019-05-02T05:32:17.924Z,46.47
2019-05-02T05:34:48.179Z,47.17
2019-05-02T05:37:18.431Z,40.90
2019-05-02T05:39:52.450Z,36.43
2019-05-02T05:42:23.243Z,44.03
2019-05-02T05:44:52.214Z,25.97
2019-05-02T05:47:22.266Z,29.90
2019-05-02T05:49:56.856Z,29.67
2019-05-02T05:52:24.078Z,28.53
2019-05-02T05:54:54.263Z,36.53
2019-05-02T05:57:24.350Z,40.17
2019-05-02T05:59:54.334Z,27.10
2019-05-02T06:02:24.525Z,27.47
2019-05-02T06:04:55.464Z,29.90
2019-05-02T06:07:27.804Z,34.33
2019-05-02T06:10:02.237Z,34.17
2019-05-02T06:12:30.405Z,42.67
2019-05-02T06:15:03.619Z,35.33
2019-05-02T06:17:33.098Z,30.50
2019-05-02T06:20:03.419Z,44.80
2019-05-02T06:22:33.489Z,26.13
2019-05-02T06:25:09.200Z,28.40
2019-05-02T06:27:38.554Z,38.57
2019-05-02T06:30:09.231Z,30.27
2019-05-02T06:32:39.574Z,32.17
2019-05-02T06:35:09.793Z,32.73
2019-05-02T06:37:40.715Z,38.37
2019-05-02T06:40:11.498Z,42.30
2019-05-02T06:42:41.572Z,31.43
2019-05-02T06:45:12.038Z,28.50
2019-05-02T06:47:43.620Z,51.53
2019-05-02T06:50:14.147Z,46.37
2019-05-02T06:52:44.254Z,31.70
2019-05-02T06:55:14.475Z,41.80
2019-05-02T06:57:44.508Z,51.43
2019-05-02T07:00:14.686Z,39.63
2019-05-02T07:02:44.823Z,49.00
2019-05-02T07:05:14.930Z,43.13
2019-05-02T07:07:48.228Z,41.30
2019-05-02T07:10:20.171Z,28.20
2019-05-02T07:12:51.286Z,47.60
2019-05-02T07:15:48.822Z,30.10
2019-05-02T07:18:19.035Z,33.50
2019-05-02T07:20:49.127Z,47.20
2019-05-02T07:23:19.176Z,50.30
2019-05-02T07:25:49.374Z,36.97
2019-05-02T07:28:19.638Z,26.57
2019-05-02T07:30:50.060Z,41.77
2019-05-02T07:33:20.277Z,35.13
2019-05-02T07:35:50.317Z,37.70
2019-05-02T07:38:25.480Z,43.47
2019-05-02T07:40:53.110Z,36.63
2019-05-02T07:43:23.769Z,42.80
2019-05-02T07:45:53.802Z,45.97
2019-05-02T07:48:23.756Z,42.73
2019-05-02T07:50:54.398Z,45.57
2019-05-02T07:53:24.639Z,41.70
2019-05-02T07:55:54.684Z,38.67
2019-05-02T07:58:24.776Z,33.13
2019-05-02T08:00:54.854Z,32.63
2019-05-02T08:03:29.318Z,33.50
2019-05-02T08:05:58.676Z,38.90
2019-05-02T08:08:31.818Z,35.97
2019-05-02T08:11:03.163Z,36.57
2019-05-02T08:13:33.369Z,41.20
2019-05-02T08:16:03.433Z,43.93
2019-05-02T08:18:33.391Z,36.77
2019-05-02T08:21:03.362Z,38.97
2019-05-02T08:23:33.427Z,29.83
2019-05-02T08:26:03.492Z,41.97
2019-05-02T08:28:39.596Z,36.00
2019-05-02T08:31:13.488Z,35.53
2019-05-02T08:33:41.608Z,33.97
2019-05-02T08:36:12.352Z,35.33
2019-05-02T08:38:43.469Z,38.37
2019-05-02T08:41:13.583Z,39.50
2019-05-02T08:43:44.925Z,38.97
2019-05-02T08:46:15.920Z,28.03
2019-05-02T08:48:46.077Z,42.47
2019-05-02T08:51:16.099Z,32.83
2019-05-02T08:53:46.189Z,42.17
2019-05-02T08:56:21.363Z,44.03
2019-05-02T08:58:49.871Z,38.67
2019-05-02T09:01:20.002Z,38.63
2019-05-02T09:03:55.066Z,42.10
2019-05-02T09:06:22.664Z,35.13
2019-05-02T09:08:53.794Z,38.77
2019-05-02T09:11:23.821Z,34.53
2019-05-02T09:13:53.848Z,42.53
2019-05-02T09:16:28.936Z,31.63
2019-05-02T09:18:55.542Z,34.97
2019-05-02T09:21:26.684Z,37.27
2019-05-02T09:23:57.341Z,31.73
2019-05-02T09:26:37.787Z,31.83
2019-05-02T09:29:01.668Z,44.73
2019-05-02T09:31:31.989Z,38.33
2019-05-02T09:34:02.788Z,36.83
2019-05-02T09:36:32.995Z,42.33
2019-05-02T09:39:03.334Z,38.13
2019-05-02T09:41:36.264Z,33.63
2019-05-02T09:44:08.884Z,36.90
2019-05-02T09:46:36.983Z,30.90
2019-05-02T09:49:11.971Z,37.87
2019-05-02T09:51:38.915Z,40.67
2019-05-02T09:54:08.959Z,37.37
2019-05-02T09:56:39.083Z,37.63
2019-05-02T09:59:24.453Z,33.00
2019-05-02T10:01:42.105Z,39.20
2019-05-02T10:04:12.407Z,36.70
2019-05-02T10:06:43.090Z,38.67
2019-05-02T10:09:13.226Z,33.30
2019-05-02T10:11:43.360Z,34.43
2019-05-02T10:14:13.743Z,32.20
2019-05-02T10:16:43.724Z,33.50
2019-05-02T10:19:13.778Z,33.87
2019-05-02T10:21:46.970Z,30.90
2019-05-02T10:24:15.521Z,33.37
2019-05-02T10:26:45.535Z,31.97
2019-05-02T10:29:15.560Z,28.60
2019-05-02T10:31:45.611Z,27.27
2019-05-02T10:34:17.659Z,30.37
2019-05-02T10:36:54.273Z,24.07
2019-05-02T10:39:19.215Z,30.03
2019-05-02T10:41:49.233Z,25.80
2019-05-02T10:44:19.279Z,24.40
2019-05-02T10:46:58.977Z,20.47
2019-05-02T10:49:42.611Z,23.60
2019-05-02T10:52:12.485Z,20.53
2019-05-02T10:54:42.573Z,21.37
2019-05-02T10:57:12.798Z,18.13
2019-05-02T10:59:42.968Z,18.93
2019-05-02T11:02:24.432Z,15.63
2019-05-02T11:04:57.369Z,16.93
2019-05-02T11:07:27.456Z,17.57
2019-05-02T11:10:02.306Z,15.23
2019-05-02T11:12:58.841Z,15.00
2019-05-02T11:15:48.873Z,15.27
2019-05-02T11:18:39.189Z,13.80
2019-05-02T11:20:54.336Z,16.47
2019-05-02T11:23:24.311Z,15.77
2019-05-02T11:25:54.441Z,16.13
2019-05-02T11:28:24.489Z,18.43
2019-05-02T11:30:56.982Z,14.87
2019-05-02T11:33:26.369Z,17.90
2019-05-02T11:35:56.454Z,16.93
2019-05-02T11:38:39.541Z,18.87
2019-05-02T11:40:58.087Z,19.93
2019-05-02T11:43:28.055Z,16.77
2019-05-02T11:46:05.508Z,14.10
2019-05-02T11:48:31.886Z,15.87
2019-05-02T11:51:02.732Z,17.10
2019-05-02T11:53:32.927Z,14.73
2019-05-02T11:56:07.463Z,14.47
2019-05-02T11:58:35.505Z,19.77
2019-05-02T12:01:12.467Z,14.43
2019-05-02T12:03:52.247Z,15.70
2019-05-02T12:06:22.507Z,18.20
2019-05-02T12:08:52.861Z,19.13
2019-05-02T12:11:23.625Z,20.10
2019-05-02T12:13:56.935Z,16.87
2019-05-02T12:16:27.006Z,16.60
2019-05-02T12:19:09.465Z,22.50
2019-05-02T12:21:32.330Z,18.80
2019-05-02T12:24:02.456Z,19.30
2019-05-02T12:26:32.800Z,26.03
2019-05-02T12:29:03.019Z,23.07
2019-05-02T12:31:33.222Z,24.13
2019-05-02T12:34:05.511Z,22.67
2019-05-02T12:36:35.555Z,24.90
2019-05-02T12:39:07.422Z,24.63
2019-05-02T12:41:37.471Z,25.10
2019-05-02T12:44:07.609Z,26.83
2019-05-02T12:46:37.668Z,24.00
2019-05-02T12:49:07.752Z,25.03
2019-05-02T12:51:37.965Z,25.17
2019-05-02T12:54:07.972Z,18.10
2019-05-02T12:56:38.061Z,22.97
2019-05-02T12:59:08.089Z,21.27
2019-05-02T13:01:38.180Z,19.63
2019-05-02T13:04:09.956Z,19.37
2019-05-02T13:06:42.074Z,24.13
2019-05-02T13:09:12.829Z,25.77
2019-05-02T13:11:54.746Z,20.97
2019-05-02T13:14:27.463Z,20.30
2019-05-02T13:17:01.289Z,20.13
2019-05-02T13:19:38.075Z,22.93
2019-05-02T13:22:18.800Z,27.53
2019-05-02T13:24:54.800Z,25.83
2019-05-02T13:27:23.579Z,22.90
2019-05-02T13:29:53.717Z,21.07
2019-05-02T13:32:29.322Z,22.47
2019-05-02T13:35:24.710Z,21.43
2019-05-02T13:37:57.600Z,28.93
2019-05-02T13:40:41.790Z,32.90
2019-05-02T13:43:12.648Z,30.27
2019-05-02T13:46:02.247Z,29.57
2019-05-02T13:48:32.710Z,31.13
2019-05-02T13:51:03.920Z,34.37
2019-05-02T13:53:35.780Z,32.17
2019-05-02T13:56:23.560Z,33.43
2019-05-02T13:58:53.698Z,36.07
2019-05-02T14:01:23.820Z,33.33
2019-05-02T14:03:55.837Z,33.17
2019-05-02T14:06:30.244Z,34.53
2019-05-02T14:09:07.430Z,37.30
2019-05-02T14:11:50.292Z,34.53
2019-05-02T14:14:20.201Z,38.33
2019-05-02T14:16:50.262Z,41.57
2019-05-02T14:19:22.161Z,37.37
2019-05-02T14:21:52.390Z,37.70
2019-05-02T14:24:23.180Z,39.47
2019-05-02T14:26:53.327Z,36.43
2019-05-02T14:29:23.468Z,30.80
2019-05-02T14:31:53.564Z,36.10
2019-05-02T14:34:45.754Z,40.83
2019-05-02T14:37:15.873Z,35.57
2019-05-02T14:39:47.627Z,34.97
2019-05-02T14:42:22.144Z,42.90
2019-05-02T14:45:05.611Z,44.83
2019-05-02T14:47:22.414Z,33.00
2019-05-02T14:49:56.728Z,40.40
2019-05-02T14:52:24.293Z,41.17
2019-05-02T14:54:55.736Z,39.57
2019-05-02T14:57:27.217Z,41.17
2019-05-02T14:59:59.420Z,40.20
2019-05-02T15:02:48.972Z,41.37
2019-05-02T15:05:19.290Z,42.97
2019-05-02T15:07:48.777Z,37.93
2019-05-02T15:10:20.043Z,22.97
2019-05-02T15:12:53.486Z,14.43
2019-05-02T15:15:23.137Z,12.03
2019-05-02T15:17:53.387Z,7.67
2019-05-02T15:20:36.220Z,6.57
2019-05-02T15:22:55.257Z,7.07
2019-05-02T15:25:25.323Z,6.70
2019-05-02T15:27:58.770Z,8.60
2019-05-02T15:30:27.140Z,11.23
2019-05-02T15:33:12.404Z,9.83
2019-05-02T15:35:52.683Z,10.53
2019-05-02T15:38:27.332Z,10.83
2019-05-02T15:40:54.636Z,9.83
2019-05-02T15:43:24.826Z,10.17
2019-05-02T15:45:55.010Z,8.90
2019-05-02T15:48:27.614Z,12.87
2019-05-02T15:51:00.132Z,15.07
2019-05-02T15:53:33.904Z,13.27
2019-05-02T15:56:03.991Z,12.63
2019-05-02T15:58:34.176Z,15.23
2019-05-02T16:01:41.612Z,16.37
2019-05-02T16:04:12.707Z,16.40
2019-05-02T16:06:42.946Z,14.70
2019-05-02T16:09:13.170Z,15.20
2019-05-02T16:11:43.518Z,18.53
2019-05-02T16:14:13.676Z,15.03
2019-05-02T16:16:45.365Z,15.03
2019-05-02T16:19:27.012Z,13.10
2019-05-02T16:21:53.163Z,14.37
2019-05-02T16:24:24.296Z,13.93
2019-05-02T16:26:57.150Z,14.97
2019-05-02T16:29:29.076Z,17.53
2019-05-02T16:32:18.843Z,16.93
2019-05-02T16:34:54.732Z,16.03
2019-05-02T16:37:24.343Z,17.47
2019-05-02T16:39:54.432Z,14.60
2019-05-02T16:42:24.513Z,15.53
2019-05-02T16:44:54.995Z,18.23
2019-05-02T16:47:26.984Z,14.53
2019-05-02T16:49:57.037Z,19.33
2019-05-02T16:52:28.516Z,17.57
2019-05-02T16:54:58.594Z,15.47
2019-05-02T16:57:28.700Z,16.87
2019-05-02T17:00:01.670Z,16.50
2019-05-02T17:02:32.464Z,18.30
2019-05-02T17:05:08.241Z,14.63
2019-05-02T17:08:10.562Z,18.97
2019-05-02T17:10:47.346Z,17.17
2019-05-02T17:13:16.154Z,13.90
2019-05-02T17:15:46.263Z,13.87
2019-05-02T17:18:18.220Z,14.40
2019-05-02T17:20:54.367Z,15.93
2019-05-02T17:23:22.156Z,17.07
2019-05-02T17:25:52.383Z,14.70
2019-05-02T17:28:22.478Z,16.23
2019-05-02T17:30:53.043Z,11.93
2019-05-02T17:33:23.240Z,14.97
2019-05-02T17:35:54.322Z,13.47
2019-05-02T17:38:29.029Z,12.97
2019-05-02T17:40:59.253Z,14.07
2019-05-02T17:43:28.487Z,14.57
2019-05-02T17:45:58.608Z,14.00
2019-05-02T17:48:32.448Z,12.47
2019-05-02T17:51:19.104Z,15.63
2019-05-02T17:53:49.935Z,16.87
2019-05-02T17:56:22.609Z,16.83
2019-05-02T17:58:54.352Z,15.97
2019-05-02T18:01:35.188Z,18.50
2019-05-02T18:04:06.718Z,15.97
2019-05-02T18:06:37.174Z,10.70
2019-05-02T18:09:08.571Z,13.30
2019-05-02T18:11:38.543Z,12.50
2019-05-02T18:14:18.637Z,14.97
2019-05-02T18:16:42.012Z,17.90
2019-05-02T18:19:15.956Z,18.83
2019-05-02T18:21:43.981Z,13.10
2019-05-02T18:24:14.242Z,17.53
2019-05-02T18:26:44.279Z,18.60
2019-05-02T18:29:15.503Z,18.03
2019-05-02T18:31:47.621Z,15.93
2019-05-02T18:34:21.167Z,19.33
2019-05-02T18:36:49.134Z,19.27
2019-05-02T18:39:22.173Z,15.93
2019-05-02T18:41:54.929Z,14.77
2019-05-02T18:44:23.967Z,16.83
2019-05-02T18:46:54.051Z,16.27
2019-05-02T18:49:24.123Z,12.63
2019-05-02T18:51:57.344Z,13.00
2019-05-02T18:54:25.890Z,18.67
2019-05-02T18:56:55.994Z,20.70
2019-05-02T18:59:27.235Z,14.43
2019-05-02T19:01:59.635Z,14.83
2019-05-02T19:04:34.909Z,18.27
2019-05-02T19:07:02.696Z,15.07
2019-05-02T19:09:33.451Z,17.20
2019-05-02T19:12:05.822Z,12.93
2019-05-02T19:14:35.321Z,21.63
2019-05-02T19:17:07.269Z,20.13
2019-05-02T19:19:37.190Z,17.37
2019-05-02T19:22:12.205Z,20.63
2019-05-02T19:24:38.956Z,16.73
2019-05-02T19:27:10.087Z,18.30
2019-05-02T19:29:42.350Z,19.80
2019-05-02T19:32:12.451Z,17.07
2019-05-02T19:34:43.852Z,22.77
2019-05-02T19:37:14.047Z,20.53
2019-05-02T19:39:48.721Z,20.13
2019-05-02T19:42:21.651Z,21.13
2019-05-02T19:44:52.773Z,23.13
2019-05-02T19:47:22.949Z,24.87
2019-05-02T19:49:54.399Z,24.10
2019-05-02T19:52:28.566Z,22.60
2019-05-02T19:54:58.834Z,23.10
2019-05-02T19:57:27.823Z,19.67
2019-05-02T20:00:02.722Z,25.63
2019-05-02T20:02:29.592Z,21.03
2019-05-02T20:04:59.796Z,22.37
2019-05-02T20:07:29.894Z,23.30
2019-05-02T20:10:01.821Z,27.83
2019-05-02T20:12:31.687Z,25.40
2019-05-02T20:15:01.720Z,28.67
2019-05-02T20:17:32.563Z,27.57
2019-05-02T20:20:07.039Z,30.27
2019-05-02T20:22:40.679Z,32.03
2019-05-02T20:25:08.047Z,30.87
2019-05-02T20:27:38.073Z,32.10
2019-05-02T20:30:08.729Z,32.07
2019-05-02T20:32:38.735Z,27.77
2019-05-02T20:35:08.984Z,32.53
2019-05-02T20:37:39.025Z,31.80
2019-05-02T20:40:23.787Z,32.53
2019-05-02T20:42:54.011Z,31.83
2019-05-02T20:45:24.072Z,33.30
2019-05-02T20:47:55.201Z,31.77
2019-05-02T20:50:25.504Z,27.70
2019-05-02T20:52:55.542Z,34.30
2019-05-02T20:55:25.530Z,28.30
2019-05-02T20:57:55.651Z,29.47
2019-05-02T21:00:28.085Z,26.70
2019-05-02T21:03:02.622Z,26.67
2019-05-02T21:05:42.846Z,25.97
2019-05-02T21:08:24.155Z,29.53
2019-05-02T21:10:54.737Z,26.27
2019-05-02T21:13:24.931Z,24.43
2019-05-02T21:15:55.230Z,26.47
2019-05-02T21:18:27.415Z,24.53
2019-05-02T21:20:57.452Z,21.50
2019-05-02T21:23:27.416Z,20.13
2019-05-02T21:25:57.461Z,20.77
2019-05-02T21:28:27.408Z,23.57
2019-05-02T21:30:57.378Z,20.30
2019-05-02T21:33:36.386Z,18.67
2019-05-02T21:36:07.282Z,17.00
2019-05-02T21:38:37.334Z,18.97
2019-05-02T21:41:09.799Z,18.60
2019-05-02T21:43:39.904Z,17.53
2019-05-02T21:46:10.116Z,15.50
2019-05-02T21:48:41.995Z,18.20
2019-05-02T21:51:18.753Z,16.30
2019-05-02T21:54:06.541Z,17.23
2019-05-02T21:56:45.568Z,15.80
2019-05-02T21:59:15.599Z,14.80
2019-05-02T22:01:51.942Z,13.73
2019-05-02T22:04:22.478Z,12.10
2019-05-02T22:06:52.848Z,10.93
2019-05-02T22:09:23.254Z,10.53
2019-05-02T22:11:53.411Z,11.43
2019-05-02T22:14:23.447Z,12.90
2019-05-02T22:16:53.469Z,8.43
2019-05-02T22:19:23.495Z,7.70
2019-05-02T22:21:53.514Z,8.27
2019-05-02T22:24:23.530Z,8.83
2019-05-02T22:26:53.555Z,10.43
2019-05-02T22:29:23.629Z,10.10
2019-05-02T22:31:54.553Z,9.07
2019-05-02T22:34:24.862Z,7.87
2019-05-02T22:36:54.947Z,8.67
2019-05-02T22:39:42.193Z,6.70
2019-05-02T22:42:12.798Z,9.63
2019-05-02T22:44:42.979Z,8.63
2019-05-02T22:47:14.072Z,7.77
2019-05-02T22:49:44.253Z,9.03
2019-05-02T22:52:14.512Z,11.23
2019-05-02T22:54:44.587Z,14.73
2019-05-02T22:57:14.608Z,11.10
2019-05-02T22:59:44.675Z,11.17
2019-05-02T23:02:14.715Z,12.57
2019-05-02T23:04:44.722Z,11.83
2019-05-02T23:07:14.759Z,12.00
2019-05-02T23:09:44.711Z,8.87
2019-05-02T23:12:14.742Z,8.20
2019-05-02T23:14:44.799Z,10.47
2019-05-02T23:17:14.878Z,10.13
2019-05-02T23:19:44.946Z,12.37
2019-05-02T23:22:15.019Z,7.20
2019-05-02T23:25:11.666Z,11.87
2019-05-02T23:27:45.927Z,8.63
2019-05-02T23:30:18.964Z,11.67
2019-05-02T23:32:48.993Z,11.80
2019-05-02T23:35:18.871Z,13.00
2019-05-02T23:37:50.002Z,13.33
2019-05-02T23:40:20.055Z,14.30
2019-05-02T23:42:50.079Z,10.10
2019-05-02T23:45:20.124Z,9.70
2019-05-02T23:47:50.315Z,9.47
2019-05-02T23:50:20.368Z,14.37
2019-05-02T23:52:50.429Z,11.00
2019-05-02T23:55:20.491Z,14.83
2019-05-02T23:57:52.217Z,12.20
